Kezdőlap
METAR-TAF:

METAR-TAF

Repülőterek :

Provincetown Municipal Airport

Provincetown, Massachusetts, Amerikai Egyesült Államok

földrajzi szélesség: 42-04N, földrajzi hosszúság: 070-13W, magasság: 2 m

Jelenlegi meteorológiai megfigyelések

A jelentés 1 órával és 4 perccel ezelõtt készült, 14:56 UTC
Észak-északnyugati szél 9 kt
Hőmérséklet 8°C
Páratartalom 66%
Légköri nyomás 1017 hPa
Látótávolság: 16.1 km
Derült ég

METAR: KPVC 061456Z AUTO 34009KT 10SM CLR 08/02 A3002 RMK AO2 SLP166 6//// T00830022 53007 PNO $

Idő: 12:00 (16:00 UTC)


TAF: hiányzik

Meteorológiai megfigyelések és előrejelzések több, mint 4000 repülőtéren (METAR és TAF jelentéseket).

A térképen piros és sárga pontok jelzik az elérhető meteorológiai állomásokat.

Mozgassa az egeret a pont fölött, hogy megjelenjen az állomás neve.

Azután kattintson az időjárási megfigyelések és előrejelzések megtekintéséhez.

A térkép megváltoztatása: kattintson a fekete keresztel jelölt zöld gombra ráközelítéshez, a vonallal jelölt zöld gombra távolításhoz, vagy a zöld nyilakra a szomszédos térképek eléréséhez.


METAR-TAF: